createdAt,value
2019-05-18T00:02:28.804Z,67.51
2019-05-18T00:05:00.219Z,67.59
2019-05-18T00:07:31.668Z,67.74
2019-05-18T00:10:03.024Z,67.80
2019-05-18T00:12:35.510Z,67.15
2019-05-18T00:15:08.697Z,67.42
2019-05-18T00:17:40.104Z,67.48
2019-05-18T00:20:14.614Z,67.39
2019-05-18T00:22:46.007Z,67.21
2019-05-18T00:25:17.452Z,67.49
2019-05-18T00:27:49.932Z,67.17
2019-05-18T00:30:25.071Z,67.29
2019-05-18T00:32:56.495Z,67.21
2019-05-18T00:35:27.961Z,67.20
2019-05-18T00:37:59.388Z,67.20
2019-05-18T00:40:30.793Z,67.13
2019-05-18T00:43:02.196Z,67.08
2019-05-18T00:45:33.684Z,67.10
2019-05-18T00:48:05.147Z,67.08
2019-05-18T00:50:36.551Z,67.21
2019-05-18T00:53:07.950Z,67.11
2019-05-18T00:55:39.390Z,67.30
2019-05-18T00:58:11.737Z,67.58
2019-05-18T01:00:43.169Z,67.74
2019-05-18T01:03:14.571Z,68.02
2019-05-18T01:05:46.008Z,68.04
2019-05-18T01:08:17.433Z,68.04
2019-05-18T01:10:49.878Z,67.89
2019-05-18T01:13:21.348Z,68.31
2019-05-18T01:15:52.747Z,68.33
2019-05-18T01:18:25.157Z,68.25
2019-05-18T01:20:56.581Z,68.31
2019-05-18T01:23:28.099Z,68.34
2019-05-18T01:25:59.508Z,68.71
2019-05-18T01:28:32.097Z,68.15
2019-05-18T01:31:03.598Z,68.49
2019-05-18T01:33:36.005Z,68.40
2019-05-18T01:36:07.416Z,68.46
2019-05-18T01:38:42.073Z,68.24
2019-05-18T01:41:13.771Z,68.35
2019-05-18T01:43:45.329Z,68.44
2019-05-18T01:46:16.732Z,68.53
2019-05-18T01:48:48.088Z,68.51
2019-05-18T01:51:19.591Z,68.13
2019-05-18T01:53:51.889Z,68.69
2019-05-18T01:56:23.357Z,68.52
2019-05-18T01:58:55.779Z,68.89
2019-05-18T02:01:29.683Z,69.17
2019-05-18T02:04:04.917Z,69.02
2019-05-18T02:06:36.792Z,69.25
2019-05-18T02:09:09.888Z,68.88
2019-05-18T02:11:41.338Z,69.19
2019-05-18T02:14:12.936Z,69.43
2019-05-18T02:16:44.386Z,69.29
2019-05-18T02:19:15.785Z,69.39
2019-05-18T02:21:48.172Z,69.34
2019-05-18T02:24:20.619Z,69.54
2019-05-18T02:26:53.912Z,69.10
2019-05-18T02:29:27.571Z,69.25
2019-05-18T02:31:59.000Z,69.22
2019-05-18T02:34:32.157Z,69.07
2019-05-18T02:37:03.681Z,69.42
2019-05-18T02:39:36.692Z,68.95
2019-05-18T02:42:10.681Z,68.40
2019-05-18T02:44:42.121Z,68.72
2019-05-18T02:47:13.539Z,68.22
2019-05-18T02:49:46.354Z,68.29
2019-05-18T02:52:17.898Z,67.94
2019-05-18T02:54:49.336Z,67.89
2019-05-18T02:57:21.853Z,67.52
2019-05-18T02:59:53.423Z,67.30
2019-05-18T03:02:24.826Z,66.94
2019-05-18T03:04:57.211Z,67.21
2019-05-18T03:07:28.895Z,67.18
2019-05-18T03:10:00.297Z,66.97
2019-05-18T03:12:31.722Z,66.53
2019-05-18T03:15:03.465Z,66.14
2019-05-18T03:17:37.152Z,66.47
2019-05-18T03:20:11.590Z,66.71
2019-05-18T03:22:43.171Z,66.87
2019-05-18T03:25:14.753Z,67.06
2019-05-18T03:27:46.220Z,67.08
2019-05-18T03:30:19.156Z,67.17
2019-05-18T03:32:51.527Z,66.76
2019-05-18T03:35:23.021Z,67.12
2019-05-18T03:37:54.554Z,67.09
2019-05-18T03:40:26.101Z,67.36
2019-05-18T03:42:57.774Z,67.29
2019-05-18T03:45:30.371Z,67.05
2019-05-18T03:48:01.956Z,67.36
2019-05-18T03:50:34.568Z,66.85
2019-05-18T03:53:06.574Z,66.71
2019-05-18T03:55:38.021Z,66.69
2019-05-18T03:58:09.674Z,66.95
2019-05-18T04:00:41.169Z,66.44
2019-05-18T04:03:14.621Z,66.52
2019-05-18T04:05:46.074Z,66.20
2019-05-18T04:08:18.432Z,65.82
2019-05-18T04:10:49.946Z,65.95
2019-05-18T04:13:21.571Z,64.25
2019-05-18T04:15:53.018Z,62.77
2019-05-18T04:18:24.662Z,61.74
2019-05-18T04:20:56.295Z,61.55
2019-05-18T04:23:27.747Z,61.38
2019-05-18T04:25:59.187Z,60.63
2019-05-18T04:28:30.849Z,58.51
2019-05-18T04:31:02.379Z,56.37
2019-05-18T04:33:33.916Z,52.89
2019-05-18T04:36:06.238Z,50.83
2019-05-18T04:38:37.643Z,48.52
2019-05-18T04:41:09.819Z,48.63
2019-05-18T04:43:41.298Z,48.84
2019-05-18T04:46:13.018Z,49.09
2019-05-18T04:48:44.565Z,48.80
2019-05-18T04:51:15.982Z,48.07
2019-05-18T04:53:47.510Z,47.15
2019-05-18T04:56:18.946Z,46.18
2019-05-18T04:58:55.528Z,44.73
2019-05-18T05:01:27.079Z,45.60
2019-05-18T05:03:58.716Z,44.50
2019-05-18T05:06:31.226Z,45.51
2019-05-18T05:09:08.048Z,44.59
2019-05-18T05:11:39.508Z,46.29
2019-05-18T05:14:12.336Z,44.43
2019-05-18T05:16:44.848Z,45.83
2019-05-18T05:19:19.137Z,44.27
2019-05-18T05:21:50.550Z,44.04
2019-05-18T05:24:22.906Z,44.63
2019-05-18T05:26:55.358Z,42.51
2019-05-18T05:29:28.045Z,43.64
2019-05-18T05:31:59.416Z,42.58
2019-05-18T05:34:33.017Z,42.52
2019-05-18T05:37:05.470Z,40.67
2019-05-18T05:39:36.869Z,41.03
2019-05-18T05:42:10.195Z,41.95
2019-05-18T05:44:41.698Z,42.21
2019-05-18T05:47:14.307Z,42.20
2019-05-18T05:49:45.760Z,42.14
2019-05-18T05:52:18.184Z,43.13
2019-05-18T05:54:49.678Z,42.60
2019-05-18T05:57:21.107Z,41.79
2019-05-18T05:59:52.609Z,41.74
2019-05-18T06:02:24.971Z,41.03
2019-05-18T06:04:56.465Z,41.17
2019-05-18T06:07:31.873Z,40.19
2019-05-18T06:10:03.824Z,41.99
2019-05-18T06:12:35.250Z,40.30
2019-05-18T06:15:09.274Z,39.85
2019-05-18T06:17:40.797Z,39.04
2019-05-18T06:20:12.360Z,39.51
2019-05-18T06:22:43.864Z,39.62
2019-05-18T06:25:15.299Z,40.19
2019-05-18T06:27:46.845Z,41.67
2019-05-18T06:30:19.051Z,40.32
2019-05-18T06:32:50.572Z,41.26
2019-05-18T06:35:22.142Z,40.49
2019-05-18T06:37:53.655Z,37.24
2019-05-18T06:40:25.200Z,38.33
2019-05-18T06:42:56.614Z,38.33
2019-05-18T06:45:30.053Z,38.64
2019-05-18T06:48:03.756Z,39.16
2019-05-18T06:50:35.351Z,40.45
2019-05-18T06:53:07.825Z,37.57
2019-05-18T06:55:40.130Z,37.50
2019-05-18T06:58:12.679Z,38.73
2019-05-18T07:00:45.110Z,36.47
2019-05-18T07:03:16.512Z,40.57
2019-05-18T07:05:48.079Z,39.98
2019-05-18T07:08:20.631Z,38.71
2019-05-18T07:10:52.282Z,36.58
2019-05-18T07:13:23.903Z,37.91
2019-05-18T07:15:55.510Z,36.71
2019-05-18T07:18:27.022Z,37.06
2019-05-18T07:20:58.536Z,38.59
2019-05-18T07:23:30.007Z,36.72
2019-05-18T07:26:01.479Z,37.33
2019-05-18T07:28:33.063Z,38.68
2019-05-18T07:31:04.597Z,36.53
2019-05-18T07:33:36.039Z,37.97
2019-05-18T07:36:07.808Z,38.07
2019-05-18T07:38:40.281Z,38.87
2019-05-18T07:41:12.822Z,37.53
2019-05-18T07:43:44.392Z,36.86
2019-05-18T07:46:15.810Z,39.99
2019-05-18T07:48:47.207Z,39.55
2019-05-18T07:51:20.669Z,38.56
2019-05-18T07:53:52.291Z,38.08
2019-05-18T07:56:23.729Z,38.24
2019-05-18T07:58:57.282Z,35.75
2019-05-18T08:01:28.868Z,36.22
2019-05-18T08:04:00.585Z,37.75
2019-05-18T08:06:32.192Z,38.28
2019-05-18T08:09:04.620Z,38.76
2019-05-18T08:11:36.236Z,39.35
2019-05-18T08:14:07.768Z,38.13
2019-05-18T08:16:39.386Z,37.80
2019-05-18T08:19:10.931Z,39.21
2019-05-18T08:21:52.698Z,41.21
2019-05-18T08:24:15.740Z,44.56
2019-05-18T08:26:49.255Z,45.41
2019-05-18T08:29:20.970Z,44.63
2019-05-18T08:31:52.460Z,44.58
2019-05-18T08:34:24.082Z,44.54
2019-05-18T08:36:56.684Z,44.96
2019-05-18T08:39:28.163Z,45.45
2019-05-18T08:41:59.724Z,45.60
2019-05-18T08:44:31.320Z,46.63
2019-05-18T08:47:02.897Z,45.97
2019-05-18T08:49:36.037Z,47.10
2019-05-18T08:52:08.868Z,46.92
2019-05-18T08:54:41.608Z,46.87
2019-05-18T08:57:14.113Z,46.85
2019-05-18T08:59:45.577Z,47.50
2019-05-18T09:02:17.018Z,47.17
2019-05-18T09:04:48.598Z,47.92
2019-05-18T09:07:21.103Z,47.54
2019-05-18T09:09:54.405Z,47.85
2019-05-18T09:12:26.993Z,47.61
2019-05-18T09:14:59.607Z,47.71
2019-05-18T09:17:31.329Z,48.46
2019-05-18T09:20:03.505Z,48.22
2019-05-18T09:22:38.738Z,48.43
2019-05-18T09:25:12.382Z,48.43
2019-05-18T09:27:46.999Z,47.89
2019-05-18T09:30:18.822Z,47.74
2019-05-18T09:32:50.408Z,47.81
2019-05-18T09:35:22.953Z,48.55
2019-05-18T09:37:54.406Z,48.56
2019-05-18T09:40:26.218Z,48.45
2019-05-18T09:42:58.030Z,49.04
2019-05-18T09:45:29.600Z,48.38
2019-05-18T09:48:01.162Z,48.27
2019-05-18T09:50:32.766Z,48.78
2019-05-18T09:53:05.038Z,48.60
2019-05-18T09:55:37.952Z,48.02
2019-05-18T09:58:09.477Z,48.23
2019-05-18T10:00:41.024Z,48.67
2019-05-18T10:03:13.246Z,48.50
2019-05-18T10:05:46.432Z,48.14
2019-05-18T10:08:18.974Z,48.62
2019-05-18T10:10:50.682Z,48.49
2019-05-18T10:13:22.198Z,48.95
2019-05-18T10:15:53.882Z,48.99
2019-05-18T10:18:25.495Z,48.18
2019-05-18T10:20:57.038Z,48.24
2019-05-18T10:23:28.695Z,48.33
2019-05-18T10:26:00.428Z,47.96
2019-05-18T10:28:31.971Z,48.21
2019-05-18T10:31:03.637Z,47.45
2019-05-18T10:33:35.042Z,47.77
2019-05-18T10:36:11.522Z,47.14
2019-05-18T10:38:41.800Z,47.58
2019-05-18T10:41:13.325Z,47.76
2019-05-18T10:43:48.624Z,47.69
2019-05-18T10:46:24.667Z,48.29
2019-05-18T10:48:58.620Z,48.10
2019-05-18T10:51:30.321Z,48.37
2019-05-18T10:54:01.817Z,48.20
2019-05-18T10:56:38.706Z,48.43
2019-05-18T10:59:12.774Z,47.56
2019-05-18T11:01:47.956Z,48.36
2019-05-18T11:04:19.638Z,48.13
2019-05-18T11:06:51.156Z,47.90
2019-05-18T11:09:22.665Z,47.83
2019-05-18T11:11:54.258Z,47.77
2019-05-18T11:14:25.972Z,47.54
2019-05-18T11:16:58.510Z,46.87
2019-05-18T11:19:30.087Z,47.25
2019-05-18T11:22:03.497Z,46.61
2019-05-18T11:24:36.285Z,46.75
2019-05-18T11:27:07.556Z,46.44
2019-05-18T11:29:39.430Z,46.12
2019-05-18T11:32:12.094Z,45.65
2019-05-18T11:34:44.004Z,46.20
2019-05-18T11:37:16.545Z,46.16
2019-05-18T11:39:48.023Z,45.60
2019-05-18T11:42:19.484Z,45.45
2019-05-18T11:44:51.041Z,45.29
2019-05-18T11:47:22.587Z,45.73
2019-05-18T11:49:57.816Z,45.45
2019-05-18T11:52:29.655Z,44.74
2019-05-18T11:55:05.039Z,45.06
2019-05-18T11:57:35.817Z,45.01
2019-05-18T12:00:14.123Z,45.82
2019-05-18T12:02:45.731Z,45.42
2019-05-18T12:05:18.873Z,45.70
2019-05-18T12:07:50.531Z,45.96
2019-05-18T12:10:23.269Z,46.21
2019-05-18T12:12:56.536Z,45.37
2019-05-18T12:15:28.425Z,45.41
2019-05-18T12:18:00.015Z,44.85
2019-05-18T12:20:33.695Z,45.08
2019-05-18T12:23:08.411Z,45.15
2019-05-18T12:25:41.042Z,44.86
2019-05-18T12:28:12.645Z,45.42
2019-05-18T12:30:46.456Z,45.25
2019-05-18T12:33:17.996Z,44.33
2019-05-18T12:35:49.443Z,44.87
2019-05-18T12:38:22.806Z,44.75
2019-05-18T12:40:55.506Z,44.88
2019-05-18T12:43:27.128Z,44.43
2019-05-18T12:46:01.272Z,45.39
2019-05-18T12:48:32.316Z,45.46
2019-05-18T12:51:04.546Z,45.36
2019-05-18T12:53:39.292Z,45.05
2019-05-18T12:56:10.754Z,44.65
2019-05-18T12:58:42.281Z,44.60
2019-05-18T13:01:13.836Z,44.84
2019-05-18T13:03:46.424Z,45.35
2019-05-18T13:06:20.269Z,44.96
2019-05-18T13:08:52.050Z,44.62
2019-05-18T13:11:24.670Z,44.80
2019-05-18T13:13:56.161Z,45.00
2019-05-18T13:16:31.305Z,45.45
2019-05-18T13:19:02.733Z,44.99
2019-05-18T13:21:40.186Z,45.60
2019-05-18T13:24:13.070Z,44.91
2019-05-18T13:27:00.288Z,45.41
2019-05-18T13:29:33.869Z,44.65
2019-05-18T13:32:06.499Z,45.02
2019-05-18T13:34:38.529Z,44.94
2019-05-18T13:37:10.180Z,44.76
2019-05-18T13:39:41.696Z,44.83
2019-05-18T13:42:13.235Z,45.14
2019-05-18T13:44:44.654Z,44.49
2019-05-18T13:47:16.213Z,45.00
2019-05-18T13:49:49.688Z,44.62
2019-05-18T13:52:23.207Z,44.72
2019-05-18T13:55:03.735Z,44.80
2019-05-18T13:57:29.404Z,44.71
2019-05-18T14:00:01.089Z,44.80
2019-05-18T14:02:32.663Z,44.82
2019-05-18T14:05:05.802Z,45.18
2019-05-18T14:07:37.814Z,44.91
2019-05-18T14:10:12.615Z,45.01
2019-05-18T14:12:44.361Z,45.09
2019-05-18T14:15:16.126Z,44.86
2019-05-18T14:17:48.737Z,44.86
2019-05-18T14:20:20.328Z,44.62
2019-05-18T14:22:52.099Z,44.53
2019-05-18T14:25:23.871Z,44.90
2019-05-18T14:27:55.430Z,44.86
2019-05-18T14:30:27.937Z,45.13
2019-05-18T14:32:59.317Z,45.23
2019-05-18T14:35:33.397Z,45.31
2019-05-18T14:38:04.417Z,45.40
2019-05-18T14:40:36.545Z,44.89
2019-05-18T14:43:09.137Z,45.06
2019-05-18T14:45:41.586Z,44.75
2019-05-18T14:48:13.020Z,45.20
2019-05-18T14:50:45.614Z,45.60
2019-05-18T14:53:18.157Z,45.31
2019-05-18T14:55:49.603Z,45.12
2019-05-18T14:58:22.321Z,45.11
2019-05-18T15:00:53.736Z,45.26
2019-05-18T15:03:25.174Z,45.39
2019-05-18T15:05:56.802Z,45.81
2019-05-18T15:08:28.255Z,45.36
2019-05-18T15:10:59.705Z,45.33
2019-05-18T15:13:32.424Z,45.37
2019-05-18T15:16:03.941Z,45.32
2019-05-18T15:18:35.938Z,45.79
2019-05-18T15:21:07.641Z,46.56
2019-05-18T15:23:40.141Z,46.12
2019-05-18T15:26:12.002Z,45.62
2019-05-18T15:28:43.472Z,46.03
2019-05-18T15:31:15.051Z,46.56
2019-05-18T15:33:46.594Z,46.76
2019-05-18T15:36:18.302Z,45.63
2019-05-18T15:38:49.806Z,46.04
2019-05-18T15:41:21.244Z,45.65
2019-05-18T15:43:54.293Z,45.58
2019-05-18T15:46:25.793Z,45.62
2019-05-18T15:48:57.383Z,45.95
2019-05-18T15:51:28.803Z,45.38
2019-05-18T15:54:01.802Z,45.58
2019-05-18T15:56:33.571Z,45.67
2019-05-18T15:59:05.230Z,46.04
2019-05-18T16:01:36.648Z,45.92
2019-05-18T16:04:10.259Z,46.24
2019-05-18T16:06:41.740Z,46.44
2019-05-18T16:09:14.323Z,46.53
2019-05-18T16:11:45.795Z,46.88
2019-05-18T16:14:18.446Z,47.02
2019-05-18T16:16:54.684Z,47.36
2019-05-18T16:19:23.177Z,47.07
2019-05-18T16:21:54.711Z,47.38
2019-05-18T16:24:26.159Z,47.48
2019-05-18T16:26:57.722Z,47.70
2019-05-18T16:29:29.261Z,47.58
2019-05-18T16:32:00.680Z,47.88
2019-05-18T16:34:32.083Z,47.87
2019-05-18T16:37:04.988Z,47.73
2019-05-18T16:39:38.506Z,48.19
2019-05-18T16:42:10.220Z,48.33
2019-05-18T16:44:41.769Z,48.61
2019-05-18T16:47:13.255Z,48.63
2019-05-18T16:49:46.766Z,48.78
2019-05-18T16:52:19.295Z,48.88
2019-05-18T16:54:50.759Z,49.10
2019-05-18T16:57:22.183Z,49.33
2019-05-18T16:59:54.771Z,49.24
2019-05-18T17:02:31.515Z,49.34
2019-05-18T17:04:59.652Z,49.54
2019-05-18T17:07:32.151Z,49.45
2019-05-18T17:10:06.375Z,49.43
2019-05-18T17:12:38.037Z,49.83
2019-05-18T17:15:10.157Z,49.83
2019-05-18T17:17:41.690Z,49.37
2019-05-18T17:20:14.520Z,49.86
2019-05-18T17:22:47.029Z,50.13
2019-05-18T17:25:18.559Z,50.24
2019-05-18T17:27:50.961Z,50.41
2019-05-18T17:30:22.590Z,50.75
2019-05-18T17:32:54.577Z,50.92
2019-05-18T17:35:26.072Z,51.09
2019-05-18T17:37:57.540Z,51.24
2019-05-18T17:40:28.992Z,51.62
2019-05-18T17:43:00.780Z,51.55
2019-05-18T17:45:32.756Z,51.73
2019-05-18T17:48:04.359Z,51.55
2019-05-18T17:50:36.972Z,51.58
2019-05-18T17:53:08.558Z,51.53
2019-05-18T17:55:41.237Z,51.61
2019-05-18T17:58:12.708Z,51.77
2019-05-18T18:00:45.389Z,51.74
2019-05-18T18:03:17.020Z,51.89
2019-05-18T18:05:49.520Z,52.08
2019-05-18T18:08:21.080Z,51.92
2019-05-18T18:10:52.496Z,52.08
2019-05-18T18:13:25.017Z,52.15
2019-05-18T18:15:56.555Z,52.08
2019-05-18T18:18:29.331Z,52.28
2019-05-18T18:21:01.533Z,52.37
2019-05-18T18:23:33.088Z,52.69
2019-05-18T18:26:04.612Z,52.99
2019-05-18T18:28:37.000Z,53.52
2019-05-18T18:31:08.448Z,53.81
2019-05-18T18:33:40.629Z,54.13
2019-05-18T18:36:14.186Z,54.30
2019-05-18T18:38:45.932Z,54.57
2019-05-18T18:41:18.780Z,54.56
2019-05-18T18:43:50.320Z,55.10
2019-05-18T18:46:21.878Z,55.06
2019-05-18T18:48:53.717Z,55.41
2019-05-18T18:51:25.590Z,55.17
2019-05-18T18:53:57.321Z,55.49
2019-05-18T18:56:28.905Z,55.64
2019-05-18T18:59:00.430Z,55.58
2019-05-18T19:01:33.039Z,56.13
2019-05-18T19:04:04.511Z,56.75
2019-05-18T19:06:36.236Z,57.70
2019-05-18T19:09:08.477Z,57.91
2019-05-18T19:11:42.061Z,58.16
2019-05-18T19:14:13.735Z,58.23
2019-05-18T19:16:46.231Z,58.32
2019-05-18T19:19:18.142Z,58.54
2019-05-18T19:21:50.841Z,58.63
2019-05-18T19:24:23.531Z,58.26
2019-05-18T19:26:55.483Z,58.55
2019-05-18T19:29:27.022Z,58.54
2019-05-18T19:31:58.610Z,58.56
2019-05-18T19:34:30.293Z,58.71
2019-05-18T19:37:04.995Z,58.74
2019-05-18T19:39:36.895Z,58.87
2019-05-18T19:42:10.243Z,59.32
2019-05-18T19:44:43.015Z,59.39
2019-05-18T19:47:14.623Z,59.42
2019-05-18T19:49:46.410Z,59.28
2019-05-18T19:52:19.245Z,59.59
2019-05-18T19:54:52.853Z,59.33
2019-05-18T19:57:26.305Z,59.59
2019-05-18T19:59:57.858Z,59.49
2019-05-18T20:02:29.309Z,59.72
2019-05-18T20:05:07.817Z,59.87
2019-05-18T20:07:36.077Z,59.99
2019-05-18T20:10:10.599Z,60.23
2019-05-18T20:12:44.479Z,60.04
2019-05-18T20:15:17.017Z,60.22
2019-05-18T20:17:48.575Z,60.15
2019-05-18T20:20:20.100Z,59.95
2019-05-18T20:22:51.722Z,60.14
2019-05-18T20:25:23.545Z,60.15
2019-05-18T20:27:56.007Z,60.35
2019-05-18T20:30:28.601Z,60.48
2019-05-18T20:33:00.259Z,60.44
2019-05-18T20:35:34.196Z,60.72
2019-05-18T20:38:08.220Z,60.67
2019-05-18T20:40:40.960Z,60.83
2019-05-18T20:43:12.702Z,61.07
2019-05-18T20:45:47.959Z,61.23
2019-05-18T20:48:19.604Z,61.50
2019-05-18T20:50:51.625Z,61.66
2019-05-18T20:53:23.131Z,61.76
2019-05-18T20:55:56.784Z,61.96
2019-05-18T20:58:39.605Z,61.59
2019-05-18T21:01:01.915Z,61.62
2019-05-18T21:03:38.411Z,61.76
2019-05-18T21:06:11.212Z,61.69
2019-05-18T21:08:43.693Z,61.54
2019-05-18T21:11:15.182Z,62.17
2019-05-18T21:13:46.696Z,62.15
2019-05-18T21:16:19.282Z,62.26
2019-05-18T21:18:51.395Z,62.59
2019-05-18T21:21:25.611Z,62.66
2019-05-18T21:23:56.690Z,62.68
2019-05-18T21:26:30.701Z,62.76
2019-05-18T21:29:03.788Z,62.87
2019-05-18T21:31:36.478Z,62.67
2019-05-18T21:34:10.381Z,62.64
2019-05-18T21:36:42.039Z,62.71
2019-05-18T21:39:14.657Z,62.47
2019-05-18T21:41:46.083Z,62.37
2019-05-18T21:44:18.762Z,62.59
2019-05-18T21:46:50.332Z,62.48
2019-05-18T21:49:22.057Z,62.49
2019-05-18T21:51:55.599Z,62.81
2019-05-18T21:54:27.012Z,62.74
2019-05-18T21:56:59.077Z,62.79
2019-05-18T21:59:30.708Z,62.90
2019-05-18T22:02:03.076Z,62.87
2019-05-18T22:04:34.646Z,63.02
2019-05-18T22:07:06.301Z,62.93
2019-05-18T22:09:38.687Z,62.80
2019-05-18T22:12:11.495Z,63.16
2019-05-18T22:14:43.022Z,63.21
2019-05-18T22:17:14.447Z,63.26
2019-05-18T22:19:46.779Z,63.16
2019-05-18T22:22:18.301Z,62.77
2019-05-18T22:24:50.823Z,63.08
2019-05-18T22:27:23.188Z,63.04
2019-05-18T22:29:54.668Z,62.96
2019-05-18T22:32:26.230Z,63.02
2019-05-18T22:34:58.686Z,62.80
2019-05-18T22:37:30.500Z,62.43
2019-05-18T22:40:02.043Z,61.98
2019-05-18T22:42:34.708Z,61.97
2019-05-18T22:45:10.469Z,61.87
2019-05-18T22:47:45.685Z,62.05
2019-05-18T22:50:17.324Z,61.78
2019-05-18T22:52:49.904Z,61.77
2019-05-18T22:55:23.827Z,61.58
2019-05-18T22:57:57.790Z,61.96
2019-05-18T23:00:29.481Z,62.38
2019-05-18T23:03:02.087Z,62.48
2019-05-18T23:05:33.636Z,63.08
2019-05-18T23:08:09.026Z,63.34
2019-05-18T23:10:41.430Z,64.14
2019-05-18T23:13:13.945Z,64.19
2019-05-18T23:15:47.588Z,64.46
2019-05-18T23:18:19.124Z,64.37
2019-05-18T23:20:50.675Z,64.22
2019-05-18T23:23:23.352Z,63.71
2019-05-18T23:25:55.930Z,63.50
2019-05-18T23:28:28.170Z,62.88
2019-05-18T23:31:03.361Z,62.72
2019-05-18T23:33:37.948Z,62.41
2019-05-18T23:36:09.781Z,61.72
2019-05-18T23:38:41.199Z,61.56
2019-05-18T23:41:13.248Z,61.26
2019-05-18T23:43:44.720Z,61.57
2019-05-18T23:46:16.813Z,61.33
2019-05-18T23:48:48.340Z,61.52
2019-05-18T23:51:20.785Z,61.92
2019-05-18T23:53:53.863Z,61.55
2019-05-18T23:56:25.497Z,62.10
2019-05-18T23:58:57.992Z,61.92
